»·PEaware :: N1947L KSAC-KAPC

N1947L :: KSAC-KAPC

FLIGHT INFORMATION

Flight Status: Arrived
Operator: Privately registered:
United States
More flights under this callsign
Pilot: Kyal V. (18498)
Aircraft: CESSNA 172 SKYHAWK
(C172)
More flights by this aircraft type
Origin: KSAC Sacramento Executive
United States
Destination: KAPC Napa Co
United States
More flights between these airports :: More routes between these airports
Route: V150 FLEAT
File this flight plan on PilotEdge
Remarks:
Altitude:
(Current/Filed)
4,000ft
Speed:
(Current/Filed)
115kts
Departed: 19-Sep-18 10:27 AM
Arrived: 19-Sep-18 12:06 PM
Distance/Time
Traveled:
41nm/1:39
Distance/Time
To Go:
Arrived

Flight Plot

Page will automatically refresh every two minutes.

Flight plan parsing failed; only flown route is shown


Map Options




Map Legend


Flown Route
Filed Route
Departure Airport
Arrival Airport
Navaid (VOR, NDB)
Fix

Horizontal Profiles

Position Reports

Time Latitude Longitude Heading Altitude Ground
Speed
19-Sep-18 10:27 38.535236 -121.786987 4 71ft 0kts
19-Sep-18 10:28 38.535458 -121.786947 21 71ft 11kts
19-Sep-18 10:29 38.520773 -121.784717 133 727ft 67kts
19-Sep-18 10:50 38.513007 -121.496999 288 27ft 0kts
19-Sep-18 10:51 38.513007 -121.497000 288 27ft 0kts
19-Sep-18 10:52 38.513007 -121.497001 288 27ft 0kts
19-Sep-18 10:53 38.513008 -121.497001 288 27ft 0kts
19-Sep-18 10:54 38.513008 -121.497002 288 27ft 0kts
19-Sep-18 10:55 38.513008 -121.497003 288 27ft 0kts
19-Sep-18 10:56 38.513008 -121.497004 288 27ft 0kts
19-Sep-18 10:57 38.513008 -121.497004 288 27ft 0kts
19-Sep-18 10:58 38.513009 -121.497005 288 27ft 0kts
19-Sep-18 10:59 38.513458 -121.496712 45 27ft 5kts
19-Sep-18 11:00 38.513608 -121.495383 208 27ft 24kts
19-Sep-18 11:01 38.506522 -121.500789 165 27ft 3kts
19-Sep-18 11:02 38.506508 -121.500785 167 27ft 0kts
19-Sep-18 11:03 38.506508 -121.500785 167 27ft 0kts
19-Sep-18 11:04 38.506507 -121.500785 167 27ft 0kts
19-Sep-18 11:05 38.506507 -121.500785 167 27ft 0kts
19-Sep-18 11:06 38.506506 -121.500784 167 27ft 0kts
19-Sep-18 11:07 38.506050 -121.499968 11 27ft 9kts
19-Sep-18 11:08 38.518836 -121.485840 90 772ft 71kts
19-Sep-18 11:09 38.513796 -121.460003 101 1759ft 78kts
19-Sep-18 11:10 38.508905 -121.434828 101 2749ft 73kts
19-Sep-18 11:11 38.498206 -121.429331 241 3417ft 77kts
19-Sep-18 11:12 38.487613 -121.462582 253 4012ft 109kts
19-Sep-18 11:13 38.476567 -121.494504 236 4007ft 124kts
19-Sep-18 11:14 38.456297 -121.530420 233 4003ft 124kts
19-Sep-18 11:15 38.435396 -121.565627 232 4003ft 124kts
19-Sep-18 11:16 38.414305 -121.600813 232 4004ft 124kts
19-Sep-18 11:17 38.393201 -121.635769 232 4003ft 124kts
19-Sep-18 11:18 38.372400 -121.671056 232 4003ft 124kts
19-Sep-18 11:19 38.351687 -121.705726 232 3999ft 119kts
19-Sep-18 11:20 38.331739 -121.739021 232 4003ft 118kts
19-Sep-18 11:21 38.311867 -121.772156 232 4003ft 118kts
19-Sep-18 11:22 38.291785 -121.805607 232 4003ft 118kts
19-Sep-18 11:23 38.271690 -121.839049 232 4003ft 119kts
19-Sep-18 11:24 38.251460 -121.872679 232 4003ft 119kts
19-Sep-18 11:25 38.231288 -121.906174 232 4002ft 119kts
19-Sep-18 11:26 38.211051 -121.939750 232 4003ft 119kts
19-Sep-18 11:27 38.190887 -121.973161 232 4003ft 119kts
19-Sep-18 11:28 38.171224 -122.007030 238 4004ft 119kts
19-Sep-18 11:29 38.155684 -122.044405 243 4003ft 119kts
19-Sep-18 11:30 38.141104 -122.082124 243 4003ft 119kts
19-Sep-18 11:31 38.126426 -122.120228 243 4003ft 119kts
19-Sep-18 11:32 38.111938 -122.157801 243 4003ft 119kts
19-Sep-18 11:33 38.097283 -122.195761 243 4003ft 119kts
19-Sep-18 11:34 38.081789 -122.233150 243 3960ft 119kts
19-Sep-18 11:35 38.067451 -122.270360 244 3454ft 116kts
19-Sep-18 11:36 38.053356 -122.307471 244 3005ft 112kts
19-Sep-18 11:37 38.040168 -122.341517 242 3005ft 107kts
19-Sep-18 11:38 38.023551 -122.372252 203 3007ft 107kts
19-Sep-18 11:39 37.994743 -122.385994 200 2783ft 118kts
19-Sep-18 11:40 37.973132 -122.369921 74 2598ft 107kts
19-Sep-18 11:41 37.994474 -122.371351 293 2612ft 104kts
19-Sep-18 11:42 38.020303 -122.374133 16 2606ft 105kts
19-Sep-18 11:43 38.048316 -122.362513 20 2501ft 110kts
19-Sep-18 11:44 38.077715 -122.347876 21 2008ft 113kts
19-Sep-18 11:45 38.106590 -122.333673 20 1792ft 104kts
19-Sep-18 11:46 38.132996 -122.321137 21 1696ft 98kts
19-Sep-18 11:47 38.157985 -122.309359 18 1151ft 96kts
19-Sep-18 11:48 38.182989 -122.297181 20 608ft 95kts
19-Sep-18 11:49 38.206766 -122.285843 21 108ft 79kts
19-Sep-18 11:50 38.227034 -122.281580 305 1165ft 72kts
19-Sep-18 11:51 38.216224 -122.295868 195 2098ft 78kts
19-Sep-18 11:52 38.201284 -122.313439 226 3030ft 77kts
19-Sep-18 11:53 38.190147 -122.343253 241 3372ft 117kts
19-Sep-18 11:54 38.161611 -122.363121 203 3021ft 111kts
19-Sep-18 11:55 38.135155 -122.377937 204 2974ft 97kts
19-Sep-18 11:56 38.110557 -122.391780 205 2975ft 96kts
19-Sep-18 11:57 38.085320 -122.405018 201 3054ft 99kts
19-Sep-18 11:58 38.058535 -122.419303 202 3043ft 105kts
19-Sep-18 11:59 38.032120 -122.423601 124 3086ft 101kts
19-Sep-18 12:00 38.031901 -122.386982 80 2586ft 109kts
19-Sep-18 12:01 38.052630 -122.360325 29 2289ft 104kts
19-Sep-18 12:02 38.078613 -122.346764 21 2291ft 104kts
19-Sep-18 12:03 38.106059 -122.334308 17 1806ft 99kts
19-Sep-18 12:04 38.130233 -122.322465 21 1768ft 95kts
19-Sep-18 12:05 38.157275 -122.309565 20 1132ft 96kts
19-Sep-18 12:06 38.180671 -122.298191 21 625ft 94kts
19-Sep-18 12:07 38.204906 -122.286634 27 167ft 84kts
19-Sep-18 12:08 38.214724 -122.278941 85 38ft 2kts

Navigation Log

Ident Type
Flight plan parsing failed, navigation log unavailable